createdAt,value
2022-10-29T00:00:21.630Z,85.45
2022-10-29T00:02:43.243Z,85.98
2022-10-29T00:05:05.095Z,85.87
2022-10-29T00:07:26.617Z,86.00
2022-10-29T00:09:48.097Z,86.11
2022-10-29T00:12:09.636Z,86.12
2022-10-29T00:14:31.120Z,85.87
2022-10-29T00:16:52.604Z,85.96
2022-10-29T00:19:14.092Z,86.17
2022-10-29T00:21:35.708Z,85.97
2022-10-29T00:23:58.121Z,85.86
2022-10-29T00:26:21.831Z,87.16
2022-10-29T00:28:43.790Z,86.71
2022-10-29T00:31:31.868Z,86.83
2022-10-29T00:33:54.971Z,87.08
2022-10-29T00:36:19.520Z,87.52
2022-10-29T00:38:41.817Z,87.34
2022-10-29T00:41:05.777Z,87.57
2022-10-29T00:43:27.874Z,87.08
2022-10-29T00:45:57.426Z,86.71
2022-10-29T00:48:20.602Z,86.81
2022-10-29T00:50:43.731Z,87.02
2022-10-29T00:53:05.217Z,86.59
2022-10-29T00:55:26.861Z,87.90
2022-10-29T00:57:54.762Z,87.80
2022-10-29T01:00:18.825Z,89.28
2022-10-29T01:02:42.153Z,89.31
2022-10-29T01:05:05.300Z,89.16
2022-10-29T01:07:26.900Z,89.40
2022-10-29T01:09:49.648Z,88.82
2022-10-29T01:12:21.219Z,88.48
2022-10-29T01:15:04.367Z,88.03
2022-10-29T01:18:06.206Z,87.46
2022-10-29T01:20:46.395Z,87.26
2022-10-29T01:23:29.640Z,87.36
2022-10-29T01:26:18.670Z,87.24
2022-10-29T01:29:12.456Z,87.70
2022-10-29T01:31:46.459Z,88.32
2022-10-29T01:34:20.905Z,89.03
2022-10-29T01:36:54.398Z,89.00
2022-10-29T01:39:27.542Z,88.42
2022-10-29T01:41:55.318Z,88.52
2022-10-29T01:44:40.019Z,89.01
2022-10-29T01:47:03.968Z,89.14
2022-10-29T01:49:34.860Z,89.70
2022-10-29T01:51:58.325Z,89.49
2022-10-29T01:54:19.817Z,89.32
2022-10-29T01:56:41.493Z,89.03
2022-10-29T01:59:11.383Z,88.70
2022-10-29T02:02:12.617Z,88.50
2022-10-29T02:04:43.765Z,88.91
2022-10-29T02:07:27.683Z,89.06
2022-10-29T02:09:56.165Z,89.38
2022-10-29T02:12:25.491Z,89.55
2022-10-29T02:14:55.820Z,89.33
2022-10-29T02:17:17.835Z,89.70
2022-10-29T02:19:39.333Z,90.87
2022-10-29T02:22:00.815Z,89.97
2022-10-29T02:24:22.285Z,89.61
2022-10-29T02:26:43.769Z,88.85
2022-10-29T02:29:05.275Z,88.46
2022-10-29T02:31:26.712Z,88.53
2022-10-29T02:33:48.198Z,88.79
2022-10-29T02:36:09.871Z,89.15
2022-10-29T02:38:31.382Z,89.79
2022-10-29T02:40:52.858Z,89.86
2022-10-29T02:43:14.440Z,89.36
2022-10-29T02:45:35.950Z,89.39
2022-10-29T02:47:57.890Z,89.43
2022-10-29T02:50:19.565Z,89.64
2022-10-29T02:52:41.062Z,90.30
2022-10-29T02:55:02.856Z,90.17
2022-10-29T02:57:24.382Z,90.09
2022-10-29T02:59:45.882Z,89.93
2022-10-29T03:02:07.521Z,88.80
2022-10-29T03:04:29.263Z,88.88
2022-10-29T03:06:50.820Z,88.61
2022-10-29T03:09:12.316Z,88.43
2022-10-29T03:11:34.151Z,88.22
2022-10-29T03:13:55.776Z,88.49
2022-10-29T03:16:17.264Z,88.65
2022-10-29T03:18:38.794Z,88.95
2022-10-29T03:21:00.273Z,89.20
2022-10-29T03:23:22.304Z,89.92
2022-10-29T03:25:43.802Z,90.12
2022-10-29T03:28:05.511Z,90.15
2022-10-29T03:30:27.123Z,91.12
2022-10-29T03:32:48.780Z,90.16
2022-10-29T03:35:12.041Z,90.20
2022-10-29T03:37:33.517Z,90.07
2022-10-29T03:39:55.175Z,89.97
2022-10-29T03:42:16.688Z,89.79
2022-10-29T03:44:38.148Z,90.11
2022-10-29T03:46:59.625Z,89.70
2022-10-29T03:49:21.087Z,89.82
2022-10-29T03:51:42.560Z,89.54
2022-10-29T03:54:04.168Z,89.44
2022-10-29T03:56:25.669Z,89.23
2022-10-29T03:58:47.172Z,88.82
2022-10-29T04:01:10.306Z,88.25
2022-10-29T04:03:33.943Z,88.00
2022-10-29T04:05:55.987Z,88.00
2022-10-29T04:08:17.587Z,88.06
2022-10-29T04:10:44.037Z,88.29
2022-10-29T04:13:05.510Z,88.28
2022-10-29T04:15:26.971Z,88.66
2022-10-29T04:17:50.869Z,88.90
2022-10-29T04:20:27.296Z,89.16
2022-10-29T04:24:12.031Z,89.74
2022-10-29T04:28:46.399Z,88.87
2022-10-29T04:30:58.180Z,88.67
2022-10-29T04:33:19.758Z,89.00
2022-10-29T04:35:41.436Z,89.04
2022-10-29T04:38:10.356Z,88.80
2022-10-29T04:40:31.832Z,89.03
2022-10-29T04:42:53.529Z,89.32
2022-10-29T04:45:15.276Z,90.78
2022-10-29T04:47:36.834Z,91.03
2022-10-29T04:49:58.298Z,90.76
2022-10-29T04:52:19.765Z,90.91
2022-10-29T04:54:41.262Z,90.98
2022-10-29T04:57:02.752Z,90.77
2022-10-29T04:59:24.218Z,90.43
2022-10-29T05:01:45.734Z,90.16
2022-10-29T05:04:07.291Z,90.08
2022-10-29T05:06:28.784Z,90.20
2022-10-29T05:08:50.257Z,90.01
2022-10-29T05:11:11.835Z,89.91
2022-10-29T05:13:34.347Z,89.92
2022-10-29T05:15:55.818Z,90.22
2022-10-29T05:18:17.361Z,90.16
2022-10-29T05:20:38.827Z,90.33
2022-10-29T05:23:08.160Z,90.11
2022-10-29T05:25:30.717Z,90.61
2022-10-29T05:28:03.287Z,90.50
2022-10-29T05:30:24.747Z,91.98
2022-10-29T05:32:46.206Z,91.23
2022-10-29T05:35:07.787Z,91.16
2022-10-29T05:37:29.270Z,90.81
2022-10-29T05:39:50.966Z,90.19
2022-10-29T05:42:12.446Z,89.76
2022-10-29T05:44:33.912Z,89.30
2022-10-29T05:46:55.433Z,89.19
2022-10-29T05:49:16.895Z,89.74
2022-10-29T05:51:38.393Z,89.94
2022-10-29T05:53:59.855Z,89.99
2022-10-29T05:56:21.380Z,90.46
2022-10-29T05:58:42.870Z,90.81
2022-10-29T06:01:08.928Z,91.46
2022-10-29T06:03:30.445Z,90.88
2022-10-29T06:05:51.978Z,91.39
2022-10-29T06:08:13.610Z,91.52
2022-10-29T06:10:35.445Z,91.26
2022-10-29T06:12:56.955Z,91.12
2022-10-29T06:15:18.800Z,91.61
2022-10-29T06:17:41.825Z,91.70
2022-10-29T06:20:03.434Z,94.85
2022-10-29T06:22:24.910Z,96.05
2022-10-29T06:24:46.437Z,93.89
2022-10-29T06:27:07.925Z,91.83
2022-10-29T06:29:29.380Z,91.63
2022-10-29T06:31:50.855Z,92.16
2022-10-29T06:34:13.538Z,93.20
2022-10-29T06:36:35.140Z,93.41
2022-10-29T06:38:56.602Z,96.01
2022-10-29T06:41:18.168Z,95.88
2022-10-29T06:43:39.659Z,94.29
2022-10-29T06:46:01.275Z,94.14
2022-10-29T06:48:23.072Z,93.71
2022-10-29T06:50:44.615Z,93.86
2022-10-29T06:53:07.689Z,93.78
2022-10-29T06:55:30.140Z,93.88
2022-10-29T06:58:04.581Z,95.67
2022-10-29T07:00:26.859Z,96.15
2022-10-29T07:02:48.453Z,98.26
2022-10-29T07:05:09.905Z,96.53
2022-10-29T07:07:31.496Z,96.33
2022-10-29T07:09:53.033Z,96.46
2022-10-29T07:12:14.565Z,95.75
2022-10-29T07:14:36.085Z,95.06
2022-10-29T07:16:57.590Z,94.57
2022-10-29T07:19:19.148Z,94.45
2022-10-29T07:21:40.651Z,94.43
2022-10-29T07:24:02.213Z,94.99
2022-10-29T07:26:23.703Z,96.97
2022-10-29T07:28:45.266Z,96.36
2022-10-29T07:31:07.815Z,95.36
2022-10-29T07:33:30.976Z,94.75
2022-10-29T07:35:56.886Z,94.18
2022-10-29T07:38:18.353Z,93.87
2022-10-29T07:40:47.538Z,93.61
2022-10-29T07:43:09.375Z,95.31
2022-10-29T07:45:30.945Z,95.42
2022-10-29T07:48:02.881Z,94.46
2022-10-29T07:50:24.858Z,93.62
2022-10-29T07:52:48.168Z,93.17
2022-10-29T07:55:09.767Z,92.70
2022-10-29T07:57:31.269Z,92.52
2022-10-29T07:59:52.763Z,92.25
2022-10-29T08:02:14.282Z,92.64
2022-10-29T08:04:35.882Z,92.57
2022-10-29T08:06:57.334Z,91.54
2022-10-29T08:09:18.945Z,91.23
2022-10-29T08:11:40.508Z,90.91
2022-10-29T08:14:02.061Z,90.79
2022-10-29T08:16:23.584Z,90.01
2022-10-29T08:18:45.114Z,89.76
2022-10-29T08:21:07.043Z,89.56
2022-10-29T08:23:28.539Z,89.08
2022-10-29T08:25:50.026Z,88.34
2022-10-29T08:28:16.261Z,88.06
2022-10-29T08:30:37.861Z,87.18
2022-10-29T08:33:00.026Z,87.99
2022-10-29T08:35:21.992Z,87.03
2022-10-29T08:37:44.849Z,86.69
2022-10-29T08:40:07.015Z,87.08
2022-10-29T08:42:44.591Z,86.39
2022-10-29T08:45:27.757Z,86.47
2022-10-29T08:48:26.856Z,85.22
2022-10-29T08:50:54.911Z,85.26
2022-10-29T08:53:25.809Z,84.54
2022-10-29T08:55:49.254Z,83.34
2022-10-29T08:58:43.736Z,83.64
2022-10-29T09:01:10.909Z,82.96
2022-10-29T09:03:32.517Z,83.20
2022-10-29T09:06:33.137Z,83.74
2022-10-29T09:09:19.434Z,83.36
2022-10-29T09:12:11.559Z,83.72
2022-10-29T09:15:05.262Z,82.19
2022-10-29T09:17:36.374Z,81.05
2022-10-29T09:20:07.825Z,81.80
2022-10-29T09:22:48.221Z,80.45
2022-10-29T09:25:23.717Z,80.78
2022-10-29T09:27:57.303Z,78.96
2022-10-29T09:30:20.770Z,78.37
2022-10-29T09:32:45.037Z,79.08
2022-10-29T09:35:16.109Z,79.89
2022-10-29T09:37:43.916Z,79.79
2022-10-29T09:40:13.153Z,78.89
2022-10-29T09:42:38.274Z,78.37
2022-10-29T09:45:03.038Z,78.77
2022-10-29T09:47:43.297Z,78.92
2022-10-29T09:50:22.980Z,80.18
2022-10-29T09:52:47.900Z,80.04
2022-10-29T09:55:18.470Z,79.03
2022-10-29T09:57:40.839Z,78.55
2022-10-29T10:00:14.663Z,78.89
2022-10-29T10:02:43.073Z,78.53
2022-10-29T10:05:13.831Z,77.81
2022-10-29T10:07:35.382Z,77.21
2022-10-29T10:10:02.434Z,76.24
2022-10-29T10:12:29.348Z,75.38
2022-10-29T10:15:22.307Z,76.08
2022-10-29T10:17:58.044Z,74.46
2022-10-29T10:20:49.206Z,74.08
2022-10-29T10:23:32.512Z,70.90
2022-10-29T10:26:02.340Z,71.63
2022-10-29T10:28:34.663Z,71.28
2022-10-29T10:31:09.583Z,71.31
2022-10-29T10:33:32.833Z,71.07
2022-10-29T10:35:54.923Z,70.22
2022-10-29T10:38:16.705Z,69.23
2022-10-29T10:40:38.312Z,69.57
2022-10-29T10:43:00.706Z,70.49
2022-10-29T10:45:29.520Z,69.80
2022-10-29T10:47:57.522Z,69.55
2022-10-29T10:50:19.283Z,69.60
2022-10-29T10:52:41.195Z,69.85
2022-10-29T10:55:25.883Z,70.46
2022-10-29T10:57:55.047Z,69.00
2022-10-29T11:00:20.283Z,69.55
2022-10-29T11:03:10.908Z,69.04
2022-10-29T11:05:40.536Z,67.12
2022-10-29T11:08:31.361Z,66.78
2022-10-29T11:10:56.839Z,67.14
2022-10-29T11:13:22.840Z,66.58
2022-10-29T11:15:47.289Z,66.48
2022-10-29T11:18:19.818Z,66.52
2022-10-29T11:20:48.199Z,66.50
2022-10-29T11:23:43.517Z,65.92
2022-10-29T11:26:40.924Z,65.62
2022-10-29T11:29:14.329Z,65.21
2022-10-29T11:31:55.468Z,64.51
2022-10-29T11:34:16.930Z,64.02
2022-10-29T11:37:01.869Z,64.36
2022-10-29T11:39:33.268Z,63.68
2022-10-29T11:42:01.546Z,65.88
2022-10-29T11:44:23.231Z,65.68
2022-10-29T11:47:05.513Z,64.77
2022-10-29T11:49:39.180Z,65.58
2022-10-29T11:52:06.532Z,65.42
2022-10-29T11:54:42.455Z,63.80
2022-10-29T11:57:11.912Z,63.29
2022-10-29T12:00:09.162Z,63.97
2022-10-29T12:03:08.125Z,63.77
2022-10-29T12:05:59.150Z,63.95
2022-10-29T12:08:42.546Z,64.34
2022-10-29T12:11:31.176Z,63.33
2022-10-29T12:14:01.785Z,63.05
2022-10-29T12:16:29.199Z,62.52
2022-10-29T12:19:14.483Z,61.85
2022-10-29T12:21:53.940Z,61.65
2022-10-29T12:24:23.280Z,61.03
2022-10-29T12:26:52.115Z,61.66
2022-10-29T12:29:23.546Z,62.90
2022-10-29T12:31:47.672Z,64.10
2022-10-29T12:34:16.185Z,63.26
2022-10-29T12:37:03.930Z,63.77
2022-10-29T12:39:32.090Z,64.42
2022-10-29T12:42:12.560Z,63.89
2022-10-29T12:44:45.161Z,62.54
2022-10-29T12:47:16.160Z,60.95
2022-10-29T12:50:13.223Z,61.51
2022-10-29T12:52:48.812Z,61.45
2022-10-29T12:55:13.717Z,61.37
2022-10-29T12:57:36.190Z,61.30
2022-10-29T13:00:17.644Z,62.29
2022-10-29T13:02:39.368Z,62.66
2022-10-29T13:05:07.216Z,62.88
2022-10-29T13:07:28.754Z,63.72
2022-10-29T13:10:21.956Z,64.29
2022-10-29T13:12:55.402Z,61.70
2022-10-29T13:15:16.962Z,62.03
2022-10-29T13:17:40.227Z,62.89
2022-10-29T13:20:14.917Z,62.63
2022-10-29T13:22:53.110Z,64.65
2022-10-29T13:25:27.654Z,65.56
2022-10-29T13:27:49.155Z,65.18
2022-10-29T13:30:21.349Z,62.78
2022-10-29T13:32:42.886Z,63.33
2022-10-29T13:35:25.729Z,63.19
2022-10-29T13:37:49.249Z,62.67
2022-10-29T13:40:22.986Z,64.17
2022-10-29T13:42:45.429Z,62.61
2022-10-29T13:45:11.963Z,63.85
2022-10-29T13:47:33.543Z,62.85
2022-10-29T13:49:55.331Z,63.23
2022-10-29T13:52:18.782Z,62.61
2022-10-29T13:54:46.169Z,62.75
2022-10-29T13:57:13.410Z,62.47
2022-10-29T13:59:41.392Z,62.19
2022-10-29T14:02:22.450Z,62.27
2022-10-29T14:04:49.457Z,62.58
2022-10-29T14:07:49.188Z,62.45
2022-10-29T14:10:32.079Z,62.83
2022-10-29T14:13:05.867Z,63.65
2022-10-29T14:15:27.416Z,63.67
2022-10-29T14:17:48.876Z,63.42
2022-10-29T14:20:28.333Z,64.12
2022-10-29T14:22:49.832Z,63.53
2022-10-29T14:25:33.944Z,65.02
2022-10-29T14:28:33.677Z,64.76
2022-10-29T14:31:04.297Z,64.73
2022-10-29T14:33:29.164Z,64.74
2022-10-29T14:35:52.168Z,66.93
2022-10-29T14:38:14.619Z,65.97
2022-10-29T14:40:36.324Z,66.52
2022-10-29T14:42:58.107Z,66.14
2022-10-29T14:45:28.613Z,66.86
2022-10-29T14:47:58.481Z,67.82
2022-10-29T14:50:26.246Z,68.82
2022-10-29T14:52:53.715Z,68.75
2022-10-29T14:55:21.397Z,70.78
2022-10-29T14:57:48.544Z,71.37
2022-10-29T15:00:27.108Z,71.60
2022-10-29T15:02:49.408Z,71.27
2022-10-29T15:05:37.635Z,71.00
2022-10-29T15:08:11.360Z,71.46
2022-10-29T15:10:43.439Z,71.50
2022-10-29T15:13:19.592Z,73.15
2022-10-29T15:15:52.935Z,73.90
2022-10-29T15:18:19.638Z,74.14
2022-10-29T15:20:41.081Z,74.41
2022-10-29T15:23:03.510Z,74.93
2022-10-29T15:25:29.737Z,74.99
2022-10-29T15:27:52.169Z,75.14
2022-10-29T15:30:30.739Z,75.04
2022-10-29T15:32:59.485Z,75.46
2022-10-29T15:35:21.637Z,75.55
2022-10-29T15:37:45.828Z,75.91
2022-10-29T15:40:13.376Z,77.10
2022-10-29T15:42:36.668Z,79.26
2022-10-29T15:45:07.116Z,79.31
2022-10-29T15:47:29.005Z,80.26
2022-10-29T15:49:50.494Z,81.85
2022-10-29T15:52:17.714Z,81.01
2022-10-29T15:54:39.241Z,80.72
2022-10-29T15:57:00.795Z,80.57
2022-10-29T15:59:24.798Z,81.11
2022-10-29T16:01:46.330Z,80.75
2022-10-29T16:04:09.495Z,80.86
2022-10-29T16:06:31.402Z,80.96
2022-10-29T16:08:55.563Z,81.61
2022-10-29T16:11:20.793Z,81.04
2022-10-29T16:13:42.738Z,81.40
2022-10-29T16:16:04.568Z,81.08
2022-10-29T16:18:26.676Z,82.11
2022-10-29T16:20:48.644Z,82.48
2022-10-29T16:23:11.598Z,82.58
2022-10-29T16:25:33.083Z,82.74
2022-10-29T16:27:55.787Z,82.43
2022-10-29T16:30:18.136Z,81.97
2022-10-29T16:32:40.375Z,81.86
2022-10-29T16:35:01.837Z,81.76
2022-10-29T16:37:23.335Z,81.62
2022-10-29T16:39:44.922Z,81.56
2022-10-29T16:42:06.802Z,82.80
2022-10-29T16:44:28.282Z,83.38
2022-10-29T16:46:49.753Z,83.40
2022-10-29T16:49:11.248Z,83.16
2022-10-29T16:51:32.704Z,83.25
2022-10-29T16:53:54.205Z,83.92
2022-10-29T16:56:15.922Z,83.47
2022-10-29T16:58:37.412Z,83.33
2022-10-29T17:01:04.151Z,83.36
2022-10-29T17:03:25.734Z,83.33
2022-10-29T17:05:47.626Z,83.68
2022-10-29T17:08:09.502Z,83.73
2022-10-29T17:10:31.321Z,83.89
2022-10-29T17:12:52.846Z,84.69
2022-10-29T17:15:14.866Z,86.21
2022-10-29T17:17:36.417Z,87.05
2022-10-29T17:19:58.192Z,86.21
2022-10-29T17:22:19.876Z,85.60
2022-10-29T17:24:42.825Z,86.23
2022-10-29T17:27:04.384Z,86.05
2022-10-29T17:29:25.899Z,86.10
2022-10-29T17:31:47.497Z,86.04
2022-10-29T17:34:08.990Z,85.91
2022-10-29T17:36:30.539Z,85.60
2022-10-29T17:38:52.042Z,85.27
2022-10-29T17:41:13.856Z,85.01
2022-10-29T17:43:35.341Z,85.30
2022-10-29T17:45:56.838Z,85.34
2022-10-29T17:48:23.935Z,85.67
2022-10-29T17:50:57.697Z,86.60
2022-10-29T17:53:19.236Z,87.94
2022-10-29T17:55:40.697Z,86.62
2022-10-29T17:58:02.179Z,86.46
2022-10-29T18:00:23.839Z,85.90
2022-10-29T18:02:48.750Z,85.69
2022-10-29T18:05:10.428Z,85.60
2022-10-29T18:07:31.908Z,85.70
2022-10-29T18:09:53.397Z,86.17
2022-10-29T18:12:14.950Z,87.23
2022-10-29T18:14:36.439Z,87.57
2022-10-29T18:16:58.810Z,88.72
2022-10-29T18:19:20.316Z,88.06
2022-10-29T18:21:41.866Z,87.86
2022-10-29T18:24:03.483Z,87.75
2022-10-29T18:26:30.782Z,87.60
2022-10-29T18:28:54.544Z,87.47
2022-10-29T18:31:16.543Z,87.46
2022-10-29T18:33:38.032Z,87.61
2022-10-29T18:35:59.519Z,87.88
2022-10-29T18:38:21.061Z,87.80
2022-10-29T18:40:42.537Z,87.57
2022-10-29T18:43:04.088Z,87.45
2022-10-29T18:45:25.603Z,87.24
2022-10-29T18:47:47.076Z,87.00
2022-10-29T18:50:08.603Z,86.79
2022-10-29T18:52:30.077Z,86.64
2022-10-29T18:54:51.579Z,86.98
2022-10-29T18:57:16.760Z,87.61
2022-10-29T18:59:40.791Z,87.40
2022-10-29T19:02:02.401Z,87.35
2022-10-29T19:04:23.935Z,87.41
2022-10-29T19:06:45.461Z,87.24
2022-10-29T19:09:08.650Z,87.55
2022-10-29T19:11:30.659Z,87.82
2022-10-29T19:13:53.711Z,88.63
2022-10-29T19:16:15.185Z,88.70
2022-10-29T19:18:38.219Z,88.51
2022-10-29T19:21:07.871Z,88.66
2022-10-29T19:23:29.432Z,88.94
2022-10-29T19:25:50.883Z,88.91
2022-10-29T19:28:12.439Z,88.92
2022-10-29T19:30:33.915Z,89.66
2022-10-29T19:32:55.781Z,89.24
2022-10-29T19:35:17.638Z,88.44
2022-10-29T19:37:40.131Z,88.18
2022-10-29T19:40:01.719Z,88.04
2022-10-29T19:42:31.134Z,87.79
2022-10-29T19:44:55.498Z,88.51
2022-10-29T19:47:18.099Z,88.21
2022-10-29T19:49:39.554Z,88.16
2022-10-29T19:52:01.091Z,87.93
2022-10-29T19:54:22.684Z,88.18
2022-10-29T19:56:44.245Z,89.08
2022-10-29T19:59:06.176Z,89.51
2022-10-29T20:01:27.816Z,89.59
2022-10-29T20:03:49.375Z,89.97
2022-10-29T20:06:11.585Z,89.59
2022-10-29T20:08:33.116Z,89.42
2022-10-29T20:10:59.452Z,89.20
2022-10-29T20:13:20.948Z,89.84
2022-10-29T20:15:42.402Z,89.75
2022-10-29T20:18:04.163Z,91.23
2022-10-29T20:20:25.818Z,89.97
2022-10-29T20:22:47.327Z,89.76
2022-10-29T20:25:09.397Z,89.76
2022-10-29T20:27:30.974Z,91.01
2022-10-29T20:29:52.436Z,91.64
2022-10-29T20:32:13.932Z,90.49
2022-10-29T20:34:35.422Z,89.91
2022-10-29T20:36:57.013Z,89.97
2022-10-29T20:39:20.142Z,89.94
2022-10-29T20:41:42.157Z,90.45
2022-10-29T20:44:03.722Z,89.98
2022-10-29T20:46:25.294Z,89.93
2022-10-29T20:48:46.747Z,90.29
2022-10-29T20:51:08.212Z,90.53
2022-10-29T20:53:29.749Z,93.07
2022-10-29T20:55:51.783Z,93.04
2022-10-29T20:58:13.337Z,92.83
2022-10-29T21:00:34.791Z,94.73
2022-10-29T21:02:56.272Z,93.84
2022-10-29T21:05:17.718Z,93.17
2022-10-29T21:07:40.126Z,93.18
2022-10-29T21:10:01.631Z,92.67
2022-10-29T21:12:23.144Z,95.08
2022-10-29T21:14:44.607Z,93.90
2022-10-29T21:17:06.740Z,93.35
2022-10-29T21:19:28.758Z,93.72
2022-10-29T21:21:50.240Z,94.54
2022-10-29T21:24:11.712Z,92.85
2022-10-29T21:26:33.227Z,92.65
2022-10-29T21:28:55.281Z,92.46
2022-10-29T21:31:17.142Z,93.10
2022-10-29T21:33:38.834Z,92.74
2022-10-29T21:36:00.853Z,92.33
2022-10-29T21:38:23.734Z,92.72
2022-10-29T21:40:45.323Z,93.24
2022-10-29T21:43:06.803Z,93.88
2022-10-29T21:45:28.246Z,94.22
2022-10-29T21:47:49.806Z,93.69
2022-10-29T21:50:11.475Z,93.46
2022-10-29T21:52:33.017Z,93.35
2022-10-29T21:54:54.485Z,93.44
2022-10-29T21:57:15.925Z,94.82
2022-10-29T21:59:37.452Z,94.14
2022-10-29T22:01:59.583Z,94.96
2022-10-29T22:04:21.122Z,94.83
2022-10-29T22:06:42.592Z,94.01
2022-10-29T22:09:04.055Z,95.19
2022-10-29T22:11:27.219Z,95.30
2022-10-29T22:13:48.911Z,95.94
2022-10-29T22:16:11.478Z,94.44
2022-10-29T22:18:33.734Z,95.15
2022-10-29T22:21:05.452Z,97.17
2022-10-29T22:23:26.931Z,95.78
2022-10-29T22:25:51.251Z,96.70
2022-10-29T22:28:12.763Z,96.03
2022-10-29T22:30:34.262Z,95.95
2022-10-29T22:32:55.719Z,96.21
2022-10-29T22:35:17.198Z,96.63
2022-10-29T22:37:38.702Z,97.00
2022-10-29T22:40:00.175Z,96.30
2022-10-29T22:42:21.901Z,97.33
2022-10-29T22:44:43.373Z,96.42
2022-10-29T22:47:04.947Z,95.93
2022-10-29T22:49:26.399Z,95.15
2022-10-29T22:51:47.891Z,94.46
2022-10-29T22:54:09.357Z,94.68
2022-10-29T22:56:36.011Z,97.01
2022-10-29T22:58:57.875Z,97.01
2022-10-29T23:01:25.394Z,98.17
2022-10-29T23:03:47.481Z,100.00
2022-10-29T23:06:11.667Z,99.07
2022-10-29T23:08:33.759Z,100.00
2022-10-29T23:10:55.596Z,100.00
2022-10-29T23:13:17.084Z,100.00
2022-10-29T23:15:38.555Z,100.00
2022-10-29T23:18:00.411Z,100.00
2022-10-29T23:20:22.171Z,100.00
2022-10-29T23:22:43.625Z,100.00
2022-10-29T23:25:05.562Z,100.00
2022-10-29T23:27:27.033Z,100.00
2022-10-29T23:29:48.515Z,100.00
2022-10-29T23:32:09.989Z,100.00
2022-10-29T23:34:31.477Z,100.00
2022-10-29T23:36:53.511Z,100.00
2022-10-29T23:39:15.121Z,100.00
2022-10-29T23:41:36.649Z,100.00
2022-10-29T23:43:58.574Z,100.00
2022-10-29T23:46:20.362Z,100.00
2022-10-29T23:48:41.885Z,100.00
2022-10-29T23:51:03.496Z,100.00
2022-10-29T23:53:25.195Z,99.67
2022-10-29T23:55:46.728Z,99.51
2022-10-29T23:58:08.467Z,99.22
